sensor_id;sensor_type;location;lat;lon;timestamp;pressure;altitude;pressure_sealevel;temperature;humidity
73821;BME280;62150;43.582;1.456;2023-05-10T05:16:55;100584.22;;;15.27;100.00
73821;BME280;62150;43.582;1.456;2023-05-10T05:19:23;100583.16;;;15.64;100.00
73821;BME280;62150;43.582;1.456;2023-05-10T05:21:51;100583.41;;;14.92;100.00
73821;BME280;62150;43.582;1.456;2023-05-10T05:24:18;100571.69;;;15.19;100.00
73821;BME280;62150;43.582;1.456;2023-05-10T05:26:46;100580.22;;;15.21;100.00
73821;BME280;62150;43.582;1.456;2023-05-10T05:29:13;100591.72;;;15.49;100.00
73821;BME280;62150;43.582;1.456;2023-05-10T05:31:40;100585.72;;;15.81;100.00
73821;BME280;62150;43.582;1.456;2023-05-10T05:34:09;100602.88;;;15.66;100.00
73821;BME280;62150;43.582;1.456;2023-05-10T05:36:37;100598.97;;;15.75;100.00
73821;BME280;62150;43.582;1.456;2023-05-10T05:39:05;100598.94;;;15.92;100.00
73821;BME280;62150;43.582;1.456;2023-05-10T05:41:32;100597.06;;;16.57;100.00
73821;BME280;62150;43.582;1.456;2023-05-10T05:44:00;100608.16;;;15.65;100.00
73821;BME280;62150;43.582;1.456;2023-05-10T05:46:28;100611.56;;;15.65;100.00
73821;BME280;62150;43.582;1.456;2023-05-10T05:48:55;100615.28;;;15.77;100.00
73821;BME280;62150;43.582;1.456;2023-05-10T05:51:24;100616.06;;;16.11;100.00
73821;BME280;62150;43.582;1.456;2023-05-10T05:53:52;100619.00;;;16.20;100.00
73821;BME280;62150;43.582;1.456;2023-05-10T05:56:19;100611.94;;;16.38;100.00
73821;BME280;62150;43.582;1.456;2023-05-10T05:58:50;100607.41;;;16.73;100.00
73821;BME280;62150;43.582;1.456;2023-05-10T06:01:17;100622.34;;;16.22;100.00
73821;BME280;62150;43.582;1.456;2023-05-10T06:03:45;100625.72;;;15.75;100.00
73821;BME280;62150;43.582;1.456;2023-05-10T06:06:12;100627.84;;;16.32;100.00
73821;BME280;62150;43.582;1.456;2023-05-10T06:08:41;100626.38;;;15.46;100.00
73821;BME280;62150;43.582;1.456;2023-05-10T06:11:09;100624.69;;;16.11;100.00
73821;BME280;62150;43.582;1.456;2023-05-10T06:13:36;100621.50;;;16.37;100.00
73821;BME280;62150;43.582;1.456;2023-05-10T06:16:04;100627.25;;;15.95;100.00
73821;BME280;62150;43.582;1.456;2023-05-10T06:18:32;100621.41;;;16.39;100.00
73821;BME280;62150;43.582;1.456;2023-05-10T06:20:59;100620.63;;;16.68;100.00
73821;BME280;62150;43.582;1.456;2023-05-10T06:23:27;100626.69;;;16.22;100.00
73821;BME280;62150;43.582;1.456;2023-05-10T06:25:56;100626.44;;;16.42;100.00
73821;BME280;62150;43.582;1.456;2023-05-10T06:28:23;100629.19;;;15.92;100.00
73821;BME280;62150;43.582;1.456;2023-05-10T06:30:51;100626.59;;;16.07;100.00
73821;BME280;62150;43.582;1.456;2023-05-10T06:33:19;100629.69;;;16.46;100.00
73821;BME280;62150;43.582;1.456;2023-05-10T06:35:46;100632.22;;;16.16;100.00
73821;BME280;62150;43.582;1.456;2023-05-10T06:38:13;100627.53;;;17.14;100.00
73821;BME280;62150;43.582;1.456;2023-05-10T06:40:42;100621.31;;;16.56;100.00
73821;BME280;62150;43.582;1.456;2023-05-10T06:43:11;100633.94;;;17.95;100.00
73821;BME280;62150;43.582;1.456;2023-05-10T06:45:38;100626.38;;;19.50;100.00
73821;BME280;62150;43.582;1.456;2023-05-10T06:48:07;100624.31;;;19.68;100.00
73821;BME280;62150;43.582;1.456;2023-05-10T06:50:34;100628.84;;;18.34;100.00
73821;BME280;62150;43.582;1.456;2023-05-10T06:53:02;100617.28;;;17.40;100.00
73821;BME280;62150;43.582;1.456;2023-05-10T06:55:29;100617.59;;;17.64;100.00
73821;BME280;62150;43.582;1.456;2023-05-10T06:57:57;100619.75;;;17.14;100.00
73821;BME280;62150;43.582;1.456;2023-05-10T07:00:26;100623.28;;;17.13;100.00
73821;BME280;62150;43.582;1.456;2023-05-10T07:02:53;100618.63;;;17.90;100.00
73821;BME280;62150;43.582;1.456;2023-05-10T07:05:21;100622.84;;;17.20;100.00
73821;BME280;62150;43.582;1.456;2023-05-10T07:07:48;100628.44;;;17.71;100.00
73821;BME280;62150;43.582;1.456;2023-05-10T07:10:16;100622.84;;;18.05;100.00
73821;BME280;62150;43.582;1.456;2023-05-10T07:12:44;100624.84;;;18.29;100.00
73821;BME280;62150;43.582;1.456;2023-05-10T07:15:11;100624.66;;;18.59;100.00
73821;BME280;62150;43.582;1.456;2023-05-10T07:17:40;100623.28;;;18.53;100.00
73821;BME280;62150;43.582;1.456;2023-05-10T07:20:08;100626.97;;;17.95;100.00
73821;BME280;62150;43.582;1.456;2023-05-10T07:22:36;100616.34;;;18.13;100.00
73821;BME280;62150;43.582;1.456;2023-05-10T07:25:04;100621.78;;;18.63;100.00
73821;BME280;62150;43.582;1.456;2023-05-10T07:27:32;100621.38;;;17.45;100.00
73821;BME280;62150;43.582;1.456;2023-05-10T07:29:59;100623.22;;;17.42;100.00
73821;BME280;62150;43.582;1.456;2023-05-10T07:32:27;100636.88;;;17.60;100.00
73821;BME280;62150;43.582;1.456;2023-05-10T07:34:56;100624.25;;;17.26;100.00
73821;BME280;62150;43.582;1.456;2023-05-10T07:37:24;100621.56;;;17.41;100.00
73821;BME280;62150;43.582;1.456;2023-05-10T07:39:51;100625.31;;;17.94;100.00
73821;BME280;62150;43.582;1.456;2023-05-10T07:42:18;100626.13;;;17.52;100.00
73821;BME280;62150;43.582;1.456;2023-05-10T07:44:46;100631.31;;;17.08;100.00
73821;BME280;62150;43.582;1.456;2023-05-10T07:47:13;100625.66;;;17.88;100.00
73821;BME280;62150;43.582;1.456;2023-05-10T07:49:41;100622.09;;;17.18;100.00
73821;BME280;62150;43.582;1.456;2023-05-10T07:52:11;100621.34;;;18.16;100.00
73821;BME280;62150;43.582;1.456;2023-05-10T07:54:38;100628.63;;;17.96;100.00
73821;BME280;62150;43.582;1.456;2023-05-10T07:57:05;100623.81;;;17.90;100.00
73821;BME280;62150;43.582;1.456;2023-05-10T07:59:33;100620.78;;;18.52;100.00
73821;BME280;62150;43.582;1.456;2023-05-10T08:02:00;100611.03;;;19.07;100.00
73821;BME280;62150;43.582;1.456;2023-05-10T08:04:28;100613.25;;;18.47;100.00
73821;BME280;62150;43.582;1.456;2023-05-10T08:06:55;100609.47;;;18.92;100.00
73821;BME280;62150;43.582;1.456;2023-05-10T08:09:24;100607.66;;;18.53;100.00
73821;BME280;62150;43.582;1.456;2023-05-10T08:11:52;100617.72;;;18.45;100.00
73821;BME280;62150;43.582;1.456;2023-05-10T08:14:19;100622.56;;;18.37;100.00
73821;BME280;62150;43.582;1.456;2023-05-10T08:16:47;100624.06;;;19.07;100.00
73821;BME280;62150;43.582;1.456;2023-05-10T08:19:14;100614.72;;;19.30;100.00
73821;BME280;62150;43.582;1.456;2023-05-10T08:21:45;100614.13;;;20.97;100.00
73821;BME280;62150;43.582;1.456;2023-05-10T08:24:12;100604.38;;;20.88;99.92
73821;BME280;62150;43.582;1.456;2023-05-10T08:26:42;100609.38;;;20.19;100.00
73821;BME280;62150;43.582;1.456;2023-05-10T08:29:09;100616.84;;;20.00;100.00
73821;BME280;62150;43.582;1.456;2023-05-10T08:31:37;100609.03;;;18.86;100.00
73821;BME280;62150;43.582;1.456;2023-05-10T08:34:04;100620.00;;;19.16;100.00
73821;BME280;62150;43.582;1.456;2023-05-10T08:36:32;100612.63;;;20.70;93.03
73821;BME280;62150;43.582;1.456;2023-05-10T08:38:59;100607.66;;;19.58;97.94
73821;BME280;62150;43.582;1.456;2023-05-10T08:41:27;100611.53;;;20.01;97.55
73821;BME280;62150;43.582;1.456;2023-05-10T08:43:56;100599.56;;;20.23;98.16
73821;BME280;62150;43.582;1.456;2023-05-10T08:46:25;100596.03;;;20.71;96.55
73821;BME280;62150;43.582;1.456;2023-05-10T08:48:54;100605.81;;;19.84;99.50
73821;BME280;62150;43.582;1.456;2023-05-10T08:51:24;100603.66;;;19.27;100.00
73821;BME280;62150;43.582;1.456;2023-05-10T08:53:53;100617.69;;;17.91;100.00
73821;BME280;62150;43.582;1.456;2023-05-10T08:56:21;100613.06;;;18.50;96.14
73821;BME280;62150;43.582;1.456;2023-05-10T08:58:49;100605.16;;;18.66;97.98
73821;BME280;62150;43.582;1.456;2023-05-10T09:01:19;100614.44;;;20.10;89.15
73821;BME280;62150;43.582;1.456;2023-05-10T09:03:47;100618.00;;;19.96;84.79
73821;BME280;62150;43.582;1.456;2023-05-10T09:06:15;100613.41;;;20.36;80.54
73821;BME280;62150;43.582;1.456;2023-05-10T09:08:43;100599.31;;;21.20;71.78
73821;BME280;62150;43.582;1.456;2023-05-10T09:11:12;100596.25;;;20.80;72.82
73821;BME280;62150;43.582;1.456;2023-05-10T09:13:40;100615.34;;;19.72;81.07
73821;BME280;62150;43.582;1.456;2023-05-10T09:16:09;100606.00;;;20.06;78.11
73821;BME280;62150;43.582;1.456;2023-05-10T09:18:38;100597.09;;;19.21;82.39
73821;BME280;62150;43.582;1.456;2023-05-10T09:21:06;100589.94;;;19.99;72.18
73821;BME280;62150;43.582;1.456;2023-05-10T09:23:33;100587.13;;;20.85;71.40
73821;BME280;62150;43.582;1.456;2023-05-10T09:26:04;100601.75;;;19.92;77.17
73821;BME280;62150;43.582;1.456;2023-05-10T09:28:32;100591.50;;;21.08;67.06
73821;BME280;62150;43.582;1.456;2023-05-10T09:31:00;100593.25;;;20.62;62.15
73821;BME280;62150;43.582;1.456;2023-05-10T09:33:28;100600.81;;;19.81;68.96
73821;BME280;62150;43.582;1.456;2023-05-10T09:36:07;100578.72;;;21.72;60.89
73821;BME280;62150;43.582;1.456;2023-05-10T09:38:45;100580.50;;;21.72;51.93
73821;BME280;62150;43.582;1.456;2023-05-10T09:41:18;100576.72;;;21.43;53.09
73821;BME280;62150;43.582;1.456;2023-05-10T09:43:46;100583.69;;;20.26;65.55
73821;BME280;62150;43.582;1.456;2023-05-10T09:46:14;100596.00;;;20.24;63.10
73821;BME280;62150;43.582;1.456;2023-05-10T09:48:43;100567.66;;;21.80;59.54
73821;BME280;62150;43.582;1.456;2023-05-10T09:51:19;100571.09;;;21.81;51.62
73821;BME280;62150;43.582;1.456;2023-05-10T09:53:47;100568.94;;;22.08;50.86
73821;BME280;62150;43.582;1.456;2023-05-10T09:56:34;100566.16;;;22.73;52.54
73821;BME280;62150;43.582;1.456;2023-05-10T09:59:05;100571.81;;;21.49;52.82
73821;BME280;62150;43.582;1.456;2023-05-10T10:01:33;100564.16;;;21.91;55.12
73821;BME280;62150;43.582;1.456;2023-05-10T10:04:04;100554.00;;;22.84;49.62
73821;BME280;62150;43.582;1.456;2023-05-10T10:06:37;100564.09;;;21.59;52.02
73821;BME280;62150;43.582;1.456;2023-05-10T10:09:05;100554.69;;;20.65;54.11
73821;BME280;62150;43.582;1.456;2023-05-10T10:11:34;100569.88;;;21.06;54.82
73821;BME280;62150;43.582;1.456;2023-05-10T10:14:02;100554.50;;;21.48;52.88
73821;BME280;62150;43.582;1.456;2023-05-10T10:16:30;100554.09;;;21.08;57.36
73821;BME280;62150;43.582;1.456;2023-05-10T10:18:58;100553.31;;;20.25;63.39
73821;BME280;62150;43.582;1.456;2023-05-10T10:21:26;100552.88;;;20.55;64.82
73821;BME280;62150;43.582;1.456;2023-05-10T10:23:55;100548.75;;;21.10;55.99
73821;BME280;62150;43.582;1.456;2023-05-10T10:26:22;100550.34;;;21.46;56.87
73821;BME280;62150;43.582;1.456;2023-05-10T10:29:00;100548.91;;;21.42;53.72
73821;BME280;62150;43.582;1.456;2023-05-10T10:31:36;100544.97;;;21.36;51.33
73821;BME280;62150;43.582;1.456;2023-05-10T10:34:07;100534.91;;;22.40;47.91
73821;BME280;62150;43.582;1.456;2023-05-10T10:36:40;100534.75;;;21.33;49.34
73821;BME280;62150;43.582;1.456;2023-05-10T10:39:11;100544.84;;;21.49;50.37
73821;BME280;62150;43.582;1.456;2023-05-10T10:41:40;100544.69;;;21.17;47.79
73821;BME280;62150;43.582;1.456;2023-05-10T10:47:23;100542.53;;;20.99;47.15
73821;BME280;62150;43.582;1.456;2023-05-10T10:50:03;100533.09;;;21.32;50.33
73821;BME280;62150;43.582;1.456;2023-05-10T10:52:32;100525.50;;;21.94;48.71
73821;BME280;62150;43.582;1.456;2023-05-10T10:55:03;100526.69;;;22.13;48.78
73821;BME280;62150;43.582;1.456;2023-05-10T10:57:41;100517.97;;;21.80;49.39
73821;BME280;62150;43.582;1.456;2023-05-10T11:00:20;100536.69;;;20.85;52.64
73821;BME280;62150;43.582;1.456;2023-05-10T11:02:49;100530.09;;;19.85;63.88
73821;BME280;62150;43.582;1.456;2023-05-10T11:05:42;100532.16;;;19.69;65.50
73821;BME280;62150;43.582;1.456;2023-05-10T11:08:15;100541.78;;;19.80;67.63
73821;BME280;62150;43.582;1.456;2023-05-10T11:10:53;100551.50;;;19.78;76.08
73821;BME280;62150;43.582;1.456;2023-05-10T11:13:31;100556.72;;;19.78;83.75
73821;BME280;62150;43.582;1.456;2023-05-10T11:15:59;100554.78;;;18.80;95.43
73821;BME280;62150;43.582;1.456;2023-05-10T11:18:37;100548.00;;;18.64;100.00
73821;BME280;62150;43.582;1.456;2023-05-10T11:21:04;100542.28;;;19.10;100.00
73821;BME280;62150;43.582;1.456;2023-05-10T11:23:33;100552.44;;;18.08;100.00
73821;BME280;62150;43.582;1.456;2023-05-10T11:26:16;100564.19;;;18.01;100.00
73821;BME280;62150;43.582;1.456;2023-05-10T11:28:44;100574.28;;;17.65;100.00
73821;BME280;62150;43.582;1.456;2023-05-10T11:31:14;100574.34;;;17.63;100.00
73821;BME280;62150;43.582;1.456;2023-05-10T11:33:45;100564.97;;;17.89;100.00
73821;BME280;62150;43.582;1.456;2023-05-10T11:36:13;100556.00;;;18.34;100.00
73821;BME280;62150;43.582;1.456;2023-05-10T11:38:41;100555.16;;;18.34;100.00
73821;BME280;62150;43.582;1.456;2023-05-10T11:41:09;100550.72;;;19.52;100.00
73821;BME280;62150;43.582;1.456;2023-05-10T11:43:39;100536.53;;;20.16;100.00
73821;BME280;62150;43.582;1.456;2023-05-10T11:46:07;100539.75;;;19.47;100.00
73821;BME280;62150;43.582;1.456;2023-05-10T11:48:35;100536.84;;;20.00;100.00
73821;BME280;62150;43.582;1.456;2023-05-10T11:51:02;100525.28;;;20.16;100.00
73821;BME280;62150;43.582;1.456;2023-05-10T11:53:31;100524.03;;;20.56;97.26
73821;BME280;62150;43.582;1.456;2023-05-10T11:56:03;100526.13;;;20.86;98.87
73821;BME280;62150;43.582;1.456;2023-05-10T11:58:32;100513.44;;;21.71;90.03
73821;BME280;62150;43.582;1.456;2023-05-10T12:01:01;100517.06;;;21.36;81.57
73821;BME280;62150;43.582;1.456;2023-05-10T12:03:29;100515.59;;;20.42;84.14
73821;BME280;62150;43.582;1.456;2023-05-10T12:05:57;100509.16;;;20.92;92.50
73821;BME280;62150;43.582;1.456;2023-05-10T12:08:26;100504.81;;;20.57;87.29
73821;BME280;62150;43.582;1.456;2023-05-10T12:11:03;100502.97;;;20.70;83.75
73821;BME280;62150;43.582;1.456;2023-05-10T12:13:31;100488.41;;;22.12;74.08
73821;BME280;62150;43.582;1.456;2023-05-10T12:16:00;100484.28;;;21.44;80.46
73821;BME280;62150;43.582;1.456;2023-05-10T12:18:40;100482.34;;;20.08;74.76
73821;BME280;62150;43.582;1.456;2023-05-10T12:21:10;100475.72;;;22.49;74.80
73821;BME280;62150;43.582;1.456;2023-05-10T12:23:38;100479.84;;;20.77;84.97
73821;BME280;62150;43.582;1.456;2023-05-10T12:26:08;100497.97;;;19.85;79.11
73821;BME280;62150;43.582;1.456;2023-05-10T12:28:36;100492.69;;;20.21;69.23
73821;BME280;62150;43.582;1.456;2023-05-10T12:31:06;100486.25;;;20.14;69.49
73821;BME280;62150;43.582;1.456;2023-05-10T12:33:37;100493.66;;;21.46;65.65
73821;BME280;62150;43.582;1.456;2023-05-10T12:36:08;100470.47;;;21.08;78.51
73821;BME280;62150;43.582;1.456;2023-05-10T12:38:37;100478.28;;;21.64;74.04
73821;BME280;62150;43.582;1.456;2023-05-10T12:41:06;100473.56;;;22.22;67.55
73821;BME280;62150;43.582;1.456;2023-05-10T12:43:34;100453.47;;;22.01;76.98
73821;BME280;62150;43.582;1.456;2023-05-10T12:46:07;100468.06;;;20.83;83.35
73821;BME280;62150;43.582;1.456;2023-05-10T12:48:35;100452.16;;;20.86;78.63
73821;BME280;62150;43.582;1.456;2023-05-10T12:51:03;100463.31;;;22.71;60.63
73821;BME280;62150;43.582;1.456;2023-05-10T12:53:31;100453.16;;;21.29;63.89
73821;BME280;62150;43.582;1.456;2023-05-10T12:55:59;100436.88;;;22.33;61.01
73821;BME280;62150;43.582;1.456;2023-05-10T12:58:26;100448.97;;;21.38;60.62
73821;BME280;62150;43.582;1.456;2023-05-10T13:00:54;100444.19;;;22.60;52.86
73821;BME280;62150;43.582;1.456;2023-05-10T13:03:23;100437.19;;;23.71;48.22
73821;BME280;62150;43.582;1.456;2023-05-10T13:05:51;100428.72;;;23.58;46.48
73821;BME280;62150;43.582;1.456;2023-05-10T13:08:18;100437.81;;;23.04;47.80
73821;BME280;62150;43.582;1.456;2023-05-10T13:10:46;100450.91;;;21.79;50.31
73821;BME280;62150;43.582;1.456;2023-05-10T13:13:15;100445.09;;;22.70;47.46
73821;BME280;62150;43.582;1.456;2023-05-10T13:15:42;100437.06;;;22.20;50.14
73821;BME280;62150;43.582;1.456;2023-05-10T13:18:10;100437.03;;;23.13;45.73
73821;BME280;62150;43.582;1.456;2023-05-10T13:20:39;100436.59;;;22.78;48.19
73821;BME280;62150;43.582;1.456;2023-05-10T13:23:06;100441.09;;;22.96;46.57
73821;BME280;62150;43.582;1.456;2023-05-10T13:25:34;100432.91;;;22.80;46.31
73821;BME280;62150;43.582;1.456;2023-05-10T13:28:01;100439.22;;;22.57;46.51
73821;BME280;62150;43.582;1.456;2023-05-10T13:30:29;100428.94;;;22.86;46.71
73821;BME280;62150;43.582;1.456;2023-05-10T13:32:56;100433.22;;;22.87;46.22
73821;BME280;62150;43.582;1.456;2023-05-10T13:35:24;100430.78;;;22.74;45.75
73821;BME280;62150;43.582;1.456;2023-05-10T13:37:53;100432.53;;;22.85;47.54
73821;BME280;62150;43.582;1.456;2023-05-10T13:40:22;100426.16;;;22.87;46.84
73821;BME280;62150;43.582;1.456;2023-05-10T13:42:50;100428.31;;;22.31;48.14
73821;BME280;62150;43.582;1.456;2023-05-10T13:45:19;100430.88;;;22.21;46.97
73821;BME280;62150;43.582;1.456;2023-05-10T13:47:46;100424.88;;;21.78;49.56
73821;BME280;62150;43.582;1.456;2023-05-10T13:50:14;100422.44;;;21.86;50.41
73821;BME280;62150;43.582;1.456;2023-05-10T13:52:41;100421.56;;;21.96;50.93
73821;BME280;62150;43.582;1.456;2023-05-10T13:55:10;100426.44;;;22.63;48.13
73821;BME280;62150;43.582;1.456;2023-05-10T13:57:39;100405.00;;;24.08;42.99
73821;BME280;62150;43.582;1.456;2023-05-10T14:00:07;100445.53;;;22.54;45.57
73821;BME280;62150;43.582;1.456;2023-05-10T14:02:35;100419.56;;;21.68;48.06
73821;BME280;62150;43.582;1.456;2023-05-10T14:05:03;100424.84;;;21.46;59.72
73821;BME280;62150;43.582;1.456;2023-05-10T14:07:31;100426.84;;;23.20;58.53
73821;BME280;62150;43.582;1.456;2023-05-10T14:09:58;100441.22;;;22.85;60.73
73821;BME280;62150;43.582;1.456;2023-05-10T14:12:27;100440.56;;;22.72;67.09
73821;BME280;62150;43.582;1.456;2023-05-10T14:14:55;100449.13;;;21.80;77.31
73821;BME280;62150;43.582;1.456;2023-05-10T14:17:24;100454.84;;;20.16;94.25
73821;BME280;62150;43.582;1.456;2023-05-10T14:19:52;100458.34;;;20.73;86.62
73821;BME280;62150;43.582;1.456;2023-05-10T14:22:19;100441.38;;;21.13;84.12
73821;BME280;62150;43.582;1.456;2023-05-10T14:24:47;100434.78;;;21.52;79.24
73821;BME280;62150;43.582;1.456;2023-05-10T14:27:14;100437.59;;;21.05;85.63
73821;BME280;62150;43.582;1.456;2023-05-10T14:29:43;100449.38;;;19.47;94.38
73821;BME280;62150;43.582;1.456;2023-05-10T14:32:10;100433.91;;;19.93;91.73
73821;BME280;62150;43.582;1.456;2023-05-10T14:34:38;100440.75;;;20.18;85.96
73821;BME280;62150;43.582;1.456;2023-05-10T14:37:05;100433.69;;;20.31;89.80
73821;BME280;62150;43.582;1.456;2023-05-10T14:39:33;100424.13;;;20.54;93.99
73821;BME280;62150;43.582;1.456;2023-05-10T14:42:01;100421.81;;;20.73;93.72
73821;BME280;62150;43.582;1.456;2023-05-10T14:44:29;100406.91;;;21.41;84.12
73821;BME280;62150;43.582;1.456;2023-05-10T14:46:58;100407.16;;;21.16;85.67
73821;BME280;62150;43.582;1.456;2023-05-10T14:49:25;100406.31;;;21.15;87.08
73821;BME280;62150;43.582;1.456;2023-05-10T14:51:53;100412.28;;;20.84;86.45
73821;BME280;62150;43.582;1.456;2023-05-10T14:54:21;100409.44;;;20.87;83.09
73821;BME280;62150;43.582;1.456;2023-05-10T14:56:48;100410.47;;;21.18;76.60
73821;BME280;62150;43.582;1.456;2023-05-10T14:59:16;100404.91;;;21.45;65.16
73821;BME280;62150;43.582;1.456;2023-05-10T15:01:43;100404.38;;;20.28;75.37
73821;BME280;62150;43.582;1.456;2023-05-10T15:04:12;100404.22;;;20.76;69.70
73821;BME280;62150;43.582;1.456;2023-05-10T15:06:42;100400.16;;;21.16;64.95
73821;BME280;62150;43.582;1.456;2023-05-10T15:09:09;100385.59;;;21.57;63.91
73821;BME280;62150;43.582;1.456;2023-05-10T15:11:37;100389.41;;;21.53;62.32
73821;BME280;62150;43.582;1.456;2023-05-10T15:14:04;100392.47;;;20.70;72.78
73821;BME280;62150;43.582;1.456;2023-05-10T15:16:32;100389.41;;;21.85;60.97
73821;BME280;62150;43.582;1.456;2023-05-10T15:18:59;100386.44;;;20.23;79.63
73821;BME280;62150;43.582;1.456;2023-05-10T15:21:28;100383.34;;;21.52;74.39
73821;BME280;62150;43.582;1.456;2023-05-10T15:24:01;100384.41;;;20.73;85.84
73821;BME280;62150;43.582;1.456;2023-05-10T15:26:29;100386.06;;;20.96;72.22
73821;BME280;62150;43.582;1.456;2023-05-10T15:28:57;100376.47;;;20.74;62.78
73821;BME280;62150;43.582;1.456;2023-05-10T15:31:25;100374.28;;;21.02;66.65
73821;BME280;62150;43.582;1.456;2023-05-10T15:33:57;100388.00;;;20.26;85.53
73821;BME280;62150;43.582;1.456;2023-05-10T15:36:25;100381.41;;;21.22;79.47
73821;BME280;62150;43.582;1.456;2023-05-10T15:38:55;100405.56;;;20.35;89.83
73821;BME280;62150;43.582;1.456;2023-05-10T15:41:22;100398.50;;;20.48;88.13
73821;BME280;62150;43.582;1.456;2023-05-10T15:43:50;100398.03;;;20.88;84.38
73821;BME280;62150;43.582;1.456;2023-05-10T15:46:18;100407.28;;;19.40;92.82
73821;BME280;62150;43.582;1.456;2023-05-10T15:48:45;100409.69;;;20.95;79.54
73821;BME280;62150;43.582;1.456;2023-05-10T15:51:13;100404.16;;;19.96;79.36
73821;BME280;62150;43.582;1.456;2023-05-10T15:53:40;100414.63;;;20.53;79.60
73821;BME280;62150;43.582;1.456;2023-05-10T15:56:09;100405.16;;;20.41;81.23
73821;BME280;62150;43.582;1.456;2023-05-10T15:58:37;100417.88;;;20.22;75.11
73821;BME280;62150;43.582;1.456;2023-05-10T16:01:05;100410.03;;;20.22;84.30
73821;BME280;62150;43.582;1.456;2023-05-10T16:03:33;100403.84;;;21.36;73.15
73821;BME280;62150;43.582;1.456;2023-05-10T16:06:00;100403.66;;;22.54;60.44
73821;BME280;62150;43.582;1.456;2023-05-10T16:08:28;100403.03;;;21.13;70.61
73821;BME280;62150;43.582;1.456;2023-05-10T16:10:58;100403.63;;;20.94;73.43
73821;BME280;62150;43.582;1.456;2023-05-10T16:13:28;100414.44;;;21.98;68.22
73821;BME280;62150;43.582;1.456;2023-05-10T16:15:55;100414.38;;;22.72;58.29
73821;BME280;62150;43.582;1.456;2023-05-10T16:18:23;100415.38;;;21.11;76.11
73821;BME280;62150;43.582;1.456;2023-05-10T16:20:51;100412.28;;;21.28;70.73
73821;BME280;62150;43.582;1.456;2023-05-10T16:23:19;100405.72;;;19.98;85.38
73821;BME280;62150;43.582;1.456;2023-05-10T16:25:47;100407.16;;;20.14;83.34
73821;BME280;62150;43.582;1.456;2023-05-10T16:28:14;100399.00;;;20.87;79.29
73821;BME280;62150;43.582;1.456;2023-05-10T16:30:43;100411.69;;;20.58;83.26
73821;BME280;62150;43.582;1.456;2023-05-10T16:33:12;100416.47;;;20.29;83.92
73821;BME280;62150;43.582;1.456;2023-05-10T16:35:40;100427.06;;;19.80;88.13
73821;BME280;62150;43.582;1.456;2023-05-10T16:38:07;100413.28;;;20.36;85.89
73821;BME280;62150;43.582;1.456;2023-05-10T16:40:35;100413.59;;;20.10;90.90
73821;BME280;62150;43.582;1.456;2023-05-10T16:43:03;100418.81;;;19.62;94.48
73821;BME280;62150;43.582;1.456;2023-05-10T16:45:31;100421.44;;;19.62;92.89
73821;BME280;62150;43.582;1.456;2023-05-10T16:48:00;100414.97;;;20.02;90.77
73821;BME280;62150;43.582;1.456;2023-05-10T16:50:27;100412.25;;;19.80;94.10
73821;BME280;62150;43.582;1.456;2023-05-10T16:52:55;100415.88;;;20.25;89.77
73821;BME280;62150;43.582;1.456;2023-05-10T16:55:23;100417.38;;;20.05;91.37
73821;BME280;62150;43.582;1.456;2023-05-10T16:57:50;100406.38;;;20.70;87.31
73821;BME280;62150;43.582;1.456;2023-05-10T17:00:23;100399.72;;;20.66;91.14
73821;BME280;62150;43.582;1.456;2023-05-10T17:02:51;100404.53;;;21.16;88.76
73821;BME280;62150;43.582;1.456;2023-05-10T17:05:21;100403.72;;;21.15;91.85
73821;BME280;62150;43.582;1.456;2023-05-10T17:07:48;100408.09;;;19.78;96.60
73821;BME280;62150;43.582;1.456;2023-05-10T17:10:16;100410.25;;;20.54;89.34
73821;BME280;62150;43.582;1.456;2023-05-10T17:12:44;100409.19;;;19.75;94.04
73821;BME280;62150;43.582;1.456;2023-05-10T17:15:11;100401.03;;;19.43;99.08
73821;BME280;62150;43.582;1.456;2023-05-10T17:17:41;100397.94;;;19.74;98.62
73821;BME280;62150;43.582;1.456;2023-05-10T17:20:09;100398.94;;;19.96;94.82
73821;BME280;62150;43.582;1.456;2023-05-10T17:22:38;100403.06;;;19.87;96.37
73821;BME280;62150;43.582;1.456;2023-05-10T17:25:06;100406.19;;;19.68;95.26
73821;BME280;62150;43.582;1.456;2023-05-10T17:27:34;100406.25;;;19.43;97.33
73821;BME280;62150;43.582;1.456;2023-05-10T17:30:01;100405.56;;;19.65;96.63
73821;BME280;62150;43.582;1.456;2023-05-10T17:32:29;100420.25;;;19.90;95.91
73821;BME280;62150;43.582;1.456;2023-05-10T17:34:57;100405.03;;;20.07;94.56
73821;BME280;62150;43.582;1.456;2023-05-10T17:37:24;100403.13;;;19.51;98.37
73821;BME280;62150;43.582;1.456;2023-05-10T17:39:53;100408.75;;;19.08;100.00
73821;BME280;62150;43.582;1.456;2023-05-10T17:42:21;100413.38;;;20.70;95.81
73821;BME280;62150;43.582;1.456;2023-05-10T17:44:48;100414.00;;;19.92;96.32
73821;BME280;62150;43.582;1.456;2023-05-10T17:47:17;100410.38;;;20.63;93.76
73821;BME280;62150;43.582;1.456;2023-05-10T17:49:44;100416.94;;;20.69;95.41
73821;BME280;62150;43.582;1.456;2023-05-10T17:52:12;100415.94;;;20.13;97.80
73821;BME280;62150;43.582;1.456;2023-05-10T17:54:39;100421.22;;;20.35;95.11
73821;BME280;62150;43.582;1.456;2023-05-10T17:57:08;100414.66;;;19.83;95.49
73821;BME280;62150;43.582;1.456;2023-05-10T17:59:36;100411.22;;;19.59;98.86
73821;BME280;62150;43.582;1.456;2023-05-10T18:02:03;100421.00;;;19.31;98.99
73821;BME280;62150;43.582;1.456;2023-05-10T18:04:30;100408.72;;;20.05;96.64
73821;BME280;62150;43.582;1.456;2023-05-10T18:06:59;100407.41;;;19.52;97.39
73821;BME280;62150;43.582;1.456;2023-05-10T18:09:27;100407.53;;;19.37;100.00
73821;BME280;62150;43.582;1.456;2023-05-10T18:11:54;100413.53;;;19.98;97.98
73821;BME280;62150;43.582;1.456;2023-05-10T18:14:23;100416.66;;;20.38;95.07